createdAt,value
2018-07-12T00:00:13.706Z,68.66
2018-07-12T00:01:13.397Z,68.37
2018-07-12T00:02:13.390Z,68.66
2018-07-12T00:03:13.397Z,68.85
2018-07-12T00:04:13.139Z,68.76
2018-07-12T00:05:13.388Z,69.72
2018-07-12T00:06:13.409Z,69.14
2018-07-12T00:07:13.398Z,69.14
2018-07-12T00:08:13.395Z,68.95
2018-07-12T00:09:13.138Z,68.85
2018-07-12T00:10:13.261Z,69.14
2018-07-12T00:11:13.140Z,69.53
2018-07-12T00:12:13.403Z,69.14
2018-07-12T00:13:13.394Z,69.53
2018-07-12T00:14:13.398Z,69.14
2018-07-12T00:15:13.393Z,69.43
2018-07-12T00:16:13.143Z,69.05
2018-07-12T00:17:13.398Z,69.43
2018-07-12T00:18:13.140Z,69.53
2018-07-12T00:19:13.144Z,69.72
2018-07-12T00:20:13.398Z,69.97
2018-07-12T00:21:13.401Z,70.64
2018-07-12T00:22:13.405Z,70.55
2018-07-12T00:23:13.394Z,70.45
2018-07-12T00:24:13.411Z,71.31
2018-07-12T00:25:13.407Z,71.12
2018-07-12T00:26:13.405Z,71.51
2018-07-12T00:27:13.406Z,71.98
2018-07-12T00:28:13.405Z,72.47
2018-07-12T00:29:13.154Z,72.37
2018-07-12T00:30:13.407Z,72.37
2018-07-12T00:31:13.154Z,72.47
2018-07-12T00:32:13.409Z,72.56
2018-07-12T00:33:13.415Z,72.53
2018-07-12T00:34:13.403Z,72.63
2018-07-12T00:35:13.421Z,72.43
2018-07-12T00:36:13.411Z,72.43
2018-07-12T00:37:13.407Z,72.63
2018-07-12T00:38:13.156Z,73.3
2018-07-12T00:39:13.411Z,72.95
2018-07-12T00:40:13.409Z,72.33
2018-07-12T00:41:13.411Z,72.53
2018-07-12T00:42:13.405Z,72.53
2018-07-12T00:43:13.154Z,72.53
2018-07-12T00:44:13.411Z,72.37
2018-07-12T00:45:13.410Z,72.47
2018-07-12T00:46:13.416Z,72.08
2018-07-12T00:47:13.409Z,71.98
2018-07-12T00:48:13.421Z,71.98
2018-07-12T00:49:13.414Z,71.7
2018-07-12T00:50:13.411Z,71.7
2018-07-12T00:51:13.167Z,72.37
2018-07-12T00:52:13.418Z,72.56
2018-07-12T00:53:13.415Z,72.28
2018-07-12T00:54:13.413Z,72.37
2018-07-12T00:55:13.284Z,71.98
2018-07-12T00:56:13.163Z,71.7
2018-07-12T00:57:13.419Z,71.51
2018-07-12T00:58:13.416Z,71.8
2018-07-12T00:59:13.417Z,71.7
2018-07-12T01:00:13.417Z,71.12
2018-07-12T01:01:13.159Z,71.61
2018-07-12T01:02:13.170Z,71.41
2018-07-12T01:03:13.421Z,71.61
2018-07-12T01:04:13.172Z,71.31
2018-07-12T01:05:13.421Z,71.61
2018-07-12T01:06:13.170Z,71.61
2018-07-12T01:07:13.164Z,71.98
2018-07-12T01:08:13.160Z,71.51
2018-07-12T01:09:13.422Z,71.12
2018-07-12T01:10:13.422Z,71.03
2018-07-12T01:11:13.422Z,70.74
2018-07-12T01:12:13.445Z,70.78
2018-07-12T01:13:13.417Z,70.64
2018-07-12T01:14:13.424Z,70.64
2018-07-12T01:15:13.169Z,70.84
2018-07-12T01:16:13.420Z,70.45
2018-07-12T01:17:13.439Z,70.93
2018-07-12T01:18:13.427Z,71.41
2018-07-12T01:19:13.439Z,70.64
2018-07-12T01:20:13.426Z,70.64
2018-07-12T01:21:13.432Z,70.84
2018-07-12T01:22:13.424Z,71.41
2018-07-12T01:23:13.409Z,70.55
2018-07-12T01:24:13.421Z,71.31
2018-07-12T01:25:13.164Z,70.93
2018-07-12T01:26:13.171Z,71.51
2018-07-12T01:27:13.425Z,71.51
2018-07-12T01:28:13.478Z,71.7
2018-07-12T01:29:13.169Z,72.43
2018-07-12T01:30:13.425Z,72.24
2018-07-12T01:31:13.169Z,72.33
2018-07-12T01:32:13.432Z,72.33
2018-07-12T01:33:13.423Z,71.89
2018-07-12T01:34:13.428Z,71.7
2018-07-12T01:35:13.184Z,72.18
2018-07-12T01:36:13.661Z,72.08
2018-07-12T01:37:13.169Z,73
2018-07-12T01:38:13.169Z,72.43
2018-07-12T01:39:13.432Z,72.63
2018-07-12T01:40:13.418Z,73.3
2018-07-12T01:41:13.436Z,73.39
2018-07-12T01:42:13.431Z,73.87
2018-07-12T01:43:13.438Z,73.49
2018-07-12T01:44:13.425Z,73.49
2018-07-12T01:45:13.422Z,73.77
2018-07-12T01:46:13.176Z,73.87
2018-07-12T01:47:13.189Z,74.26
2018-07-12T01:48:13.435Z,74.16
2018-07-12T01:49:13.417Z,74.51
2018-07-12T01:50:13.179Z,73.97
2018-07-12T01:51:13.422Z,73.87
2018-07-12T01:52:13.422Z,73.87
2018-07-12T01:53:13.165Z,73.39
2018-07-12T01:54:13.178Z,73.2
2018-07-12T01:55:13.161Z,73.49
2018-07-12T01:56:13.447Z,73.3
2018-07-12T01:57:13.428Z,73.49
2018-07-12T01:58:13.434Z,73.39
2018-07-12T01:59:13.161Z,73.3
2018-07-12T02:00:13.162Z,73.39
2018-07-12T02:01:13.411Z,72.91
2018-07-12T02:02:13.429Z,72.63
2018-07-12T02:03:13.425Z,72.72
2018-07-12T02:04:13.422Z,73
2018-07-12T02:05:13.166Z,73.2
2018-07-12T02:06:13.424Z,73.49
2018-07-12T02:07:13.158Z,74.06
2018-07-12T02:08:13.429Z,74.54
2018-07-12T02:09:13.410Z,75.08
2018-07-12T02:10:13.431Z,75.56
2018-07-12T02:11:13.433Z,75.37
2018-07-12T02:12:13.433Z,75.75
2018-07-12T02:13:13.154Z,75.95
2018-07-12T02:14:13.409Z,76.04
2018-07-12T02:15:13.414Z,76.23
2018-07-12T02:16:13.408Z,76.23
2018-07-12T02:17:13.440Z,76.52
2018-07-12T02:18:13.153Z,76.23
2018-07-12T02:19:13.404Z,76.32
2018-07-12T02:20:13.403Z,76.04
2018-07-12T02:21:13.406Z,76.42
2018-07-12T02:22:13.146Z,75.95
2018-07-12T02:23:13.399Z,76.04
2018-07-12T02:24:13.149Z,75.56
2018-07-12T02:25:13.402Z,75.46
2018-07-12T02:26:13.401Z,75.56
2018-07-12T02:27:13.396Z,75.56
2018-07-12T02:28:13.148Z,75.18
2018-07-12T02:29:13.399Z,74.41
2018-07-12T02:30:13.157Z,73.87
2018-07-12T02:31:13.174Z,73.58
2018-07-12T02:32:13.395Z,73.87
2018-07-12T02:33:13.403Z,73.58
2018-07-12T02:34:13.147Z,73.77
2018-07-12T02:35:13.604Z,74.35
2018-07-12T02:36:13.395Z,73.97
2018-07-12T02:37:13.396Z,73.68
2018-07-12T02:38:13.150Z,73.68
2018-07-12T02:39:13.410Z,73.39
2018-07-12T02:40:13.412Z,73.68
2018-07-12T02:41:13.410Z,73.39
2018-07-12T02:42:13.159Z,73.39
2018-07-12T02:43:13.394Z,73.58
2018-07-12T02:44:13.150Z,73.97
2018-07-12T02:45:13.417Z,73.39
2018-07-12T02:46:13.425Z,73.39
2018-07-12T02:47:13.152Z,73.49
2018-07-12T02:48:13.140Z,73.58
2018-07-12T02:49:13.151Z,73.3
2018-07-12T02:50:13.470Z,73.2
2018-07-12T02:51:13.397Z,73.2
2018-07-12T02:52:13.416Z,73.2
2018-07-12T02:53:13.153Z,73.3
2018-07-12T02:54:13.138Z,73.49
2018-07-12T02:55:13.180Z,72.91
2018-07-12T02:56:13.404Z,72.53
2018-07-12T02:57:13.403Z,72.72
2018-07-12T02:58:13.397Z,73.3
2018-07-12T02:59:13.428Z,73.2
2018-07-12T03:00:13.415Z,73.58
2018-07-12T03:01:14.998Z,73.77
2018-07-12T03:02:13.405Z,73.97
2018-07-12T03:03:13.404Z,73.87
2018-07-12T03:04:13.170Z,74.64
2018-07-12T03:05:13.397Z,74.93
2018-07-12T03:06:13.402Z,75.12
2018-07-12T03:07:13.143Z,74.64
2018-07-12T03:08:13.398Z,74.64
2018-07-12T03:09:13.406Z,74.64
2018-07-12T03:10:13.435Z,74.73
2018-07-12T03:11:13.162Z,74.73
2018-07-12T03:12:13.400Z,74.44
2018-07-12T03:13:13.417Z,73.97
2018-07-12T03:14:13.157Z,73.87
2018-07-12T03:15:13.209Z,73.49
2018-07-12T03:16:13.408Z,73.2
2018-07-12T03:17:13.394Z,73.33
2018-07-12T03:18:13.143Z,72.85
2018-07-12T03:19:13.410Z,73.04
2018-07-12T03:20:13.394Z,72.95
2018-07-12T03:21:13.141Z,72.85
2018-07-12T03:22:13.438Z,73.62
2018-07-12T03:23:13.409Z,73.24
2018-07-12T03:24:13.143Z,73.3
2018-07-12T03:25:13.410Z,73.33
2018-07-12T03:26:13.398Z,73.58
2018-07-12T03:27:13.142Z,73.58
2018-07-12T03:28:13.157Z,73.33
2018-07-12T03:29:13.144Z,73.2
2018-07-12T03:30:13.233Z,73.33
2018-07-12T03:31:13.400Z,73.3
2018-07-12T03:32:13.148Z,73.39
2018-07-12T03:33:13.398Z,73.58
2018-07-12T03:34:13.142Z,73.49
2018-07-12T03:35:13.505Z,73.72
2018-07-12T03:36:13.395Z,73.3
2018-07-12T03:37:13.396Z,73.49
2018-07-12T03:38:13.407Z,73.3
2018-07-12T03:39:13.144Z,73.58
2018-07-12T03:40:13.395Z,73.97
2018-07-12T03:41:13.161Z,74.93
2018-07-12T03:42:13.146Z,74.64
2018-07-12T03:43:13.404Z,74.44
2018-07-12T03:44:13.417Z,74.64
2018-07-12T03:45:13.399Z,74.44
2018-07-12T03:46:13.404Z,74.26
2018-07-12T03:47:13.157Z,74.64
2018-07-12T03:48:13.395Z,74.35
2018-07-12T03:49:13.149Z,74.16
2018-07-12T03:50:13.405Z,74.06
2018-07-12T03:51:13.415Z,73.77
2018-07-12T03:52:13.146Z,73.87
2018-07-12T03:53:13.456Z,74.06
2018-07-12T03:54:13.150Z,73.72
2018-07-12T03:55:13.402Z,73.87
2018-07-12T03:56:13.413Z,73.81
2018-07-12T03:57:13.397Z,73.87
2018-07-12T03:58:13.142Z,74.35
2018-07-12T03:59:13.403Z,74.16
2018-07-12T04:00:13.408Z,74.44
2018-07-12T04:01:13.551Z,74.73
2018-07-12T04:02:13.408Z,74.73
2018-07-12T04:03:13.403Z,74.54
2018-07-12T04:04:13.407Z,74.93
2018-07-12T04:05:13.421Z,74.54
2018-07-12T04:06:13.406Z,74.39
2018-07-12T04:07:13.404Z,74.35
2018-07-12T04:08:13.396Z,73.91
2018-07-12T04:09:13.412Z,73.87
2018-07-12T04:10:13.400Z,74.01
2018-07-12T04:11:13.404Z,73.91
2018-07-12T04:12:13.403Z,73.91
2018-07-12T04:13:13.404Z,74.01
2018-07-12T04:14:13.149Z,73.72
2018-07-12T04:15:13.402Z,73.62
2018-07-12T04:16:13.405Z,73.43
2018-07-12T04:17:13.159Z,73.72
2018-07-12T04:18:13.406Z,73.62
2018-07-12T04:19:13.403Z,72.95
2018-07-12T04:20:13.416Z,72.47
2018-07-12T04:21:13.406Z,72.75
2018-07-12T04:22:13.424Z,73.33
2018-07-12T04:23:13.153Z,73.43
2018-07-12T04:24:13.408Z,73.68
2018-07-12T04:25:13.402Z,74.01
2018-07-12T04:26:13.154Z,73.81
2018-07-12T04:27:13.405Z,73.91
2018-07-12T04:28:13.150Z,73.52
2018-07-12T04:29:13.155Z,73.33
2018-07-12T04:30:13.407Z,72.56
2018-07-12T04:31:13.404Z,72.75
2018-07-12T04:32:13.409Z,72.56
2018-07-12T04:33:13.405Z,72.22
2018-07-12T04:34:13.413Z,72.31
2018-07-12T04:35:13.415Z,72.37
2018-07-12T04:36:13.415Z,72.6
2018-07-12T04:37:13.413Z,71.93
2018-07-12T04:38:13.162Z,70.72
2018-07-12T04:39:13.412Z,70.04
2018-07-12T04:40:13.164Z,70.33
2018-07-12T04:41:13.412Z,70.04
2018-07-12T04:42:13.162Z,70.14
2018-07-12T04:43:13.166Z,70.72
2018-07-12T04:44:13.164Z,70.52
2018-07-12T04:45:13.414Z,70.33
2018-07-12T04:46:13.425Z,70.43
2018-07-12T04:47:13.428Z,70.52
2018-07-12T04:48:13.178Z,70.62
2018-07-12T04:49:13.432Z,70.81
2018-07-12T04:50:13.193Z,70.62
2018-07-12T04:51:13.533Z,70.62
2018-07-12T04:52:13.424Z,70.04
2018-07-12T04:53:13.177Z,70.14
2018-07-12T04:54:13.191Z,70.23
2018-07-12T04:55:13.494Z,69.56
2018-07-12T04:56:13.175Z,70.33
2018-07-12T04:57:13.435Z,70.62
2018-07-12T04:58:13.640Z,70.14
2018-07-12T04:59:13.446Z,69.85
2018-07-12T05:00:13.447Z,69.75
2018-07-12T05:01:13.200Z,70.07
2018-07-12T05:02:13.497Z,69.31
2018-07-12T05:03:13.240Z,68.6
2018-07-12T05:04:13.450Z,68.12
2018-07-12T05:05:13.565Z,67.83
2018-07-12T05:06:13.205Z,67.16
2018-07-12T05:07:13.460Z,66.97
2018-07-12T05:08:13.296Z,67.93
2018-07-12T05:09:13.203Z,67.58
2018-07-12T05:10:13.463Z,67.07
2018-07-12T05:11:13.204Z,67.93
2018-07-12T05:12:13.454Z,66.58
2018-07-12T05:13:13.461Z,67.07
2018-07-12T05:14:13.453Z,67.45
2018-07-12T05:15:13.467Z,67.54
2018-07-12T05:16:13.576Z,67.54
2018-07-12T05:17:13.458Z,67.35
2018-07-12T05:18:13.224Z,67.93
2018-07-12T05:19:13.471Z,67.35
2018-07-12T05:20:13.473Z,67.35
2018-07-12T05:21:13.465Z,68.12
2018-07-12T05:22:13.465Z,67.96
2018-07-12T05:23:13.464Z,68.21
2018-07-12T05:24:13.219Z,67.35
2018-07-12T05:25:13.573Z,67.58
2018-07-12T05:26:13.218Z,67.29
2018-07-12T05:27:13.473Z,66.52
2018-07-12T05:28:13.474Z,66.81
2018-07-12T05:29:13.216Z,66.42
2018-07-12T05:30:13.525Z,65.97
2018-07-12T05:31:13.482Z,65.78
2018-07-12T05:32:13.502Z,65.4
2018-07-12T05:33:13.480Z,65.01
2018-07-12T05:34:13.272Z,65.11
2018-07-12T05:35:13.526Z,65.3
2018-07-12T05:36:13.505Z,65.11
2018-07-12T05:37:13.242Z,65.11
2018-07-12T05:38:13.233Z,64.63
2018-07-12T05:39:13.690Z,65.01
2018-07-12T05:40:13.492Z,64.86
2018-07-12T05:41:13.239Z,65.14
2018-07-12T05:42:13.625Z,64.76
2018-07-12T05:43:13.245Z,64.56
2018-07-12T05:44:13.514Z,64.47
2018-07-12T05:45:13.245Z,64.95
2018-07-12T05:46:13.270Z,63.99
2018-07-12T05:47:13.508Z,63.41
2018-07-12T05:48:13.517Z,64.08
2018-07-12T05:49:13.512Z,64.08
2018-07-12T05:50:13.254Z,64.18
2018-07-12T05:51:13.511Z,63.89
2018-07-12T05:52:13.527Z,64.08
2018-07-12T05:53:13.262Z,63.41
2018-07-12T05:54:13.264Z,63.22
2018-07-12T05:55:13.528Z,62.93
2018-07-12T05:56:13.529Z,62.93
2018-07-12T05:57:13.535Z,62.74
2018-07-12T05:58:13.531Z,63.22
2018-07-12T05:59:13.276Z,64.08
2018-07-12T06:00:13.318Z,63.79
2018-07-12T06:01:13.538Z,63.99
2018-07-12T06:02:15.038Z,63.6
2018-07-12T06:03:13.541Z,63.89
2018-07-12T06:04:13.541Z,63.99
2018-07-12T06:05:13.286Z,64.66
2018-07-12T06:06:13.294Z,65.24
2018-07-12T06:07:13.293Z,64.86
2018-07-12T06:08:13.538Z,66.1
2018-07-12T06:09:13.298Z,66.2
2018-07-12T06:10:13.550Z,66.94
2018-07-12T06:11:13.572Z,67.22
2018-07-12T06:12:13.299Z,67.71
2018-07-12T06:13:13.615Z,68.38
2018-07-12T06:14:13.559Z,68.48
2018-07-12T06:24:41.485Z,76.09
2018-07-12T06:25:41.448Z,76.57
2018-07-12T06:26:41.454Z,77.53
2018-07-12T06:27:41.447Z,78.59
2018-07-12T06:28:41.191Z,79.55
2018-07-12T06:29:41.450Z,79.94
2018-07-12T06:30:41.443Z,79.65
2018-07-12T06:31:41.443Z,79.17
2018-07-12T06:32:41.186Z,78.98
2018-07-12T06:33:41.437Z,79.07
2018-07-12T06:34:41.439Z,78.78
2018-07-12T06:35:41.440Z,77.83
2018-07-12T06:36:41.439Z,77.83
2018-07-12T06:37:41.187Z,76.96
2018-07-12T06:38:41.456Z,76.71
2018-07-12T06:39:41.440Z,76.61
2018-07-12T06:40:41.185Z,76
2018-07-12T06:41:41.441Z,76.04
2018-07-12T06:42:41.645Z,75.23
2018-07-12T06:43:41.442Z,74.27
2018-07-12T06:44:41.188Z,74.17
2018-07-12T06:45:41.465Z,73.69
2018-07-12T06:46:41.440Z,74.55
2018-07-12T06:47:41.441Z,74.75
2018-07-12T06:48:41.459Z,73.79
2018-07-12T06:49:41.453Z,74.08
2018-07-12T06:50:41.448Z,74.08
2018-07-12T06:51:41.481Z,73.88
2018-07-12T06:52:41.212Z,73.79
2018-07-12T06:53:41.198Z,74.46
2018-07-12T06:54:41.462Z,74.4
2018-07-12T06:55:41.466Z,74.11
2018-07-12T06:56:41.202Z,73.79
2018-07-12T06:57:41.459Z,73.41
2018-07-12T06:58:41.458Z,73.25
2018-07-12T06:59:41.311Z,73.35
2018-07-12T07:00:41.533Z,73.31
2018-07-12T07:01:41.481Z,73.31
2018-07-12T07:02:41.459Z,73.11
2018-07-12T07:03:41.208Z,73.41
2018-07-12T07:04:41.466Z,73.63
2018-07-12T07:05:41.464Z,73.11
2018-07-12T07:06:41.234Z,76
2018-07-12T07:07:41.485Z,80.13
2018-07-12T07:08:41.463Z,83.4
2018-07-12T07:09:42.271Z,85.85
2018-07-12T07:10:41.470Z,87.1
2018-07-12T07:11:41.467Z,88.02
2018-07-12T07:12:41.472Z,89.84
2018-07-12T07:13:41.470Z,91.62
2018-07-12T07:14:41.531Z,92.48
2018-07-12T07:15:41.221Z,92.39
2018-07-12T07:16:41.474Z,93.82
2018-07-12T07:17:41.473Z,94.49
2018-07-12T07:18:41.219Z,94.21
2018-07-12T07:19:41.470Z,94.64
2018-07-12T07:20:41.475Z,95.12
2018-07-12T07:21:41.491Z,94.26
2018-07-12T07:22:41.481Z,94.93
2018-07-12T07:23:41.496Z,93.59
2018-07-12T07:24:41.272Z,92.54
2018-07-12T07:25:41.350Z,93.01
2018-07-12T07:26:41.226Z,92.91
2018-07-12T07:27:41.228Z,92.86
2018-07-12T07:28:41.483Z,93.06
2018-07-12T07:29:41.471Z,93.54
2018-07-12T07:30:41.481Z,94.31
2018-07-12T07:31:41.481Z,94.21
2018-07-12T07:32:41.477Z,94.79
2018-07-12T07:33:41.489Z,94.31
2018-07-12T07:34:41.477Z,95.07
2018-07-12T07:35:41.545Z,95.26
2018-07-12T07:36:41.226Z,96.08
2018-07-12T07:37:41.482Z,95.94
2018-07-12T07:38:41.481Z,96.27
2018-07-12T07:39:42.280Z,95.21
2018-07-12T07:40:41.494Z,94.64
2018-07-12T07:41:41.226Z,93.59
2018-07-12T07:42:41.485Z,94.74
2018-07-12T07:43:41.483Z,95.21
2018-07-12T07:44:41.229Z,95.41
2018-07-12T07:45:41.499Z,94.64
2018-07-12T07:46:41.237Z,93.97
2018-07-12T07:47:41.488Z,93.82
2018-07-12T07:48:41.230Z,94.17
2018-07-12T07:49:41.482Z,94.31
2018-07-12T07:50:41.490Z,94.54
2018-07-12T07:51:41.486Z,95.36
2018-07-12T07:52:41.486Z,95.36
2018-07-12T07:53:41.490Z,93.06
2018-07-12T07:54:41.505Z,92.77
2018-07-12T07:55:41.489Z,93.25
2018-07-12T07:56:41.483Z,92.58
2018-07-12T07:57:41.242Z,91.52
2018-07-12T07:58:41.493Z,91.52
2018-07-12T07:59:41.244Z,91.33
2018-07-12T08:00:41.485Z,91.57
2018-07-12T08:01:41.242Z,91.47
2018-07-12T08:02:41.239Z,91.38
2018-07-12T08:03:41.245Z,88.83
2018-07-12T08:04:41.506Z,87.39
2018-07-12T08:05:41.250Z,86.38
2018-07-12T08:06:41.246Z,83.78
2018-07-12T08:07:41.252Z,83.53
2018-07-12T08:08:41.507Z,83.59
2018-07-12T08:09:41.514Z,83.44
2018-07-12T08:10:41.510Z,82.86
2018-07-12T08:11:41.251Z,82.19
2018-07-12T08:12:41.517Z,82.67
2018-07-12T08:13:41.512Z,82.38
2018-07-12T08:14:41.258Z,81.84
2018-07-12T08:15:41.524Z,81.84
2018-07-12T08:16:41.298Z,80.79
2018-07-12T08:17:41.527Z,80.6
2018-07-12T08:18:41.269Z,80.88
2018-07-12T08:19:41.272Z,80.15
2018-07-12T08:20:41.274Z,78.81
2018-07-12T08:21:41.278Z,78.23
2018-07-12T08:22:41.268Z,78.13
2018-07-12T08:23:41.275Z,78.03
2018-07-12T08:24:41.536Z,77.69
2018-07-12T08:25:41.296Z,75.96
2018-07-12T08:26:41.284Z,75.9
2018-07-12T08:27:41.285Z,74.74
2018-07-12T08:28:41.587Z,74.1
2018-07-12T08:29:41.544Z,72.02
2018-07-12T08:30:41.544Z,68.13
2018-07-12T08:31:41.555Z,67.59
2018-07-12T08:32:41.303Z,64.92
2018-07-12T08:33:41.559Z,63.98
2018-07-12T08:34:41.577Z,60.44
2018-07-12T08:35:41.605Z,59.89
2018-07-12T08:36:41.325Z,57.91
2018-07-12T08:37:41.583Z,57.43
2018-07-12T08:38:41.584Z,55.52
2018-07-12T08:39:41.587Z,56.39
2018-07-12T08:40:41.771Z,57.45
2018-07-12T08:41:41.341Z,56.29
2018-07-12T08:42:41.403Z,56.03
2018-07-12T08:43:41.627Z,54.67
2018-07-12T08:44:41.380Z,52.5
2018-07-12T08:45:41.366Z,51.65
2018-07-12T08:46:41.367Z,50.38
2018-07-12T08:47:41.628Z,49.85
2018-07-12T08:48:41.395Z,51.01
2018-07-12T08:49:41.386Z,50.02
2018-07-12T08:50:41.655Z,48.97
2018-07-12T08:51:41.656Z,48.49
2018-07-12T08:52:41.659Z,48.49
2018-07-12T08:53:41.417Z,48.88
2018-07-12T08:54:41.779Z,50.8
2018-07-12T08:55:41.721Z,51.62
2018-07-12T08:56:41.690Z,52.08
2018-07-12T08:57:41.712Z,52.83
2018-07-12T08:58:41.464Z,52.83
2018-07-12T08:59:41.714Z,52.66
2018-07-12T09:00:41.465Z,53.61
2018-07-12T09:01:41.467Z,53.51
2018-07-12T09:02:41.878Z,54.16
2018-07-12T09:03:41.730Z,55.13
2018-07-12T09:04:41.737Z,55.78
2018-07-12T09:05:41.746Z,57.01
2018-07-12T09:06:41.755Z,58.56
2018-07-12T09:07:41.761Z,60.05
2018-07-12T09:08:41.766Z,60.72
2018-07-12T09:09:41.777Z,59.63
2018-07-12T09:10:41.780Z,59.73
2018-07-12T09:11:41.793Z,59.92
2018-07-12T09:12:41.543Z,60.5
2018-07-12T09:13:41.804Z,61.73
2018-07-12T09:14:41.809Z,62.98
2018-07-12T09:15:41.923Z,63.05
2018-07-12T09:16:41.568Z,62.86
2018-07-12T09:17:41.575Z,62.28
2018-07-12T09:18:41.828Z,62.95
2018-07-12T09:19:41.844Z,63.89
2018-07-12T09:20:41.839Z,64.37
2018-07-12T09:21:41.956Z,64.18
2018-07-12T09:22:41.848Z,63.31
2018-07-12T09:23:41.854Z,63.53
2018-07-12T09:24:41.868Z,63.92
2018-07-12T09:25:41.619Z,64.66
2018-07-12T09:26:41.615Z,64.86
2018-07-12T09:27:41.621Z,64.24
2018-07-12T09:28:41.623Z,64.53
2018-07-12T09:29:41.632Z,64.63
2018-07-12T09:30:41.687Z,65.11
2018-07-12T09:31:41.896Z,65.4
2018-07-12T09:32:41.641Z,65.01
2018-07-12T09:33:41.655Z,65.01
2018-07-12T09:34:41.683Z,64.28
2018-07-12T09:35:41.666Z,63.98
2018-07-12T09:36:41.932Z,63.4
2018-07-12T09:37:41.665Z,63.21
2018-07-12T09:38:41.929Z,63.79
2018-07-12T09:39:41.722Z,62.25
2018-07-12T09:40:41.682Z,63.31
2018-07-12T09:41:41.933Z,64.08
2018-07-12T09:42:41.941Z,61.31
2018-07-12T09:43:41.770Z,62.86
2018-07-12T09:44:41.705Z,62.82
2018-07-12T09:45:41.702Z,63.12
2018-07-12T09:46:41.718Z,63.21
2018-07-12T09:47:42.096Z,64.18
2018-07-12T09:48:41.968Z,62.82
2018-07-12T09:49:41.971Z,61.99
2018-07-12T09:50:42.074Z,62.08
2018-07-12T09:51:41.730Z,63.15
2018-07-12T09:52:42.019Z,63.05
2018-07-12T09:53:41.993Z,62.82
2018-07-12T09:54:42.014Z,62.44
2018-07-12T09:55:42.307Z,62.82
2018-07-12T09:56:42.375Z,63.7
2018-07-12T09:57:42.008Z,63.6
2018-07-12T09:58:42.007Z,63.7
2018-07-12T09:59:42.003Z,63.5
2018-07-12T10:00:42.008Z,62.95
2018-07-12T10:01:41.758Z,64.11
2018-07-12T10:02:42.019Z,60.54
2018-07-12T10:03:42.021Z,60.54
2018-07-12T10:04:42.026Z,60.31
2018-07-12T10:05:41.773Z,60.61
2018-07-12T10:06:41.779Z,60.89
2018-07-12T10:07:41.781Z,60.16
2018-07-12T10:08:41.797Z,59.19
2018-07-12T10:09:42.046Z,58.8
2018-07-12T10:10:42.222Z,58.06
2018-07-12T10:11:42.049Z,57.48
2018-07-12T10:12:41.802Z,58.83
2018-07-12T10:13:42.059Z,57.99
2018-07-12T10:14:42.066Z,57.21
2018-07-12T10:15:42.068Z,58.09
2018-07-12T10:16:42.075Z,58.45
2018-07-12T10:17:42.072Z,58.54
2018-07-12T10:18:41.823Z,59.51
2018-07-12T10:19:41.826Z,58.64
2018-07-12T10:20:42.085Z,58.54
2018-07-12T10:21:41.833Z,59.41
2018-07-12T10:22:41.837Z,57.19
2018-07-12T10:53:59.154Z,57.48
2018-07-12T10:54:58.897Z,57.87
2018-07-12T10:55:59.156Z,57.77
2018-07-12T10:56:58.898Z,58.15
2018-07-12T10:57:59.159Z,60.28
2018-07-12T10:58:59.250Z,60.47
2018-07-12T10:59:59.153Z,58.73
2018-07-12T11:00:58.913Z,58.73
2018-07-12T11:01:59.168Z,58.83
2018-07-12T11:02:59.178Z,58.8
2018-07-12T11:03:58.917Z,58.7
2018-07-12T11:04:58.917Z,58.8
2018-07-12T11:05:59.179Z,58.35
2018-07-12T11:06:59.179Z,58.15
2018-07-12T11:07:59.179Z,58.15
2018-07-12T11:08:58.925Z,57.67
2018-07-12T11:09:58.926Z,57.19
2018-07-12T11:10:59.183Z,58.64
2018-07-12T11:11:59.187Z,59.41
2018-07-12T11:12:58.943Z,57.19
2018-07-12T11:13:58.942Z,56.83
2018-07-12T11:14:59.198Z,58.67
2018-07-12T11:15:59.220Z,55.77
2018-07-12T11:16:58.959Z,55.41
2018-07-12T11:17:58.952Z,55.51
2018-07-12T11:18:59.212Z,54.93
2018-07-12T11:19:59.216Z,53.09
2018-07-12T11:20:58.986Z,53.77
2018-07-12T11:21:58.976Z,53.57
2018-07-12T11:22:58.979Z,53.09
2018-07-12T11:23:59.234Z,53.57
2018-07-12T11:24:58.982Z,53.57
2018-07-12T11:25:58.985Z,53.67
2018-07-12T11:26:59.243Z,53.77
2018-07-12T11:27:58.994Z,53.31
2018-07-12T11:29:00.051Z,53.09
2018-07-12T11:29:59.257Z,52.92
2018-07-12T11:30:59.262Z,52.82
2018-07-12T11:31:59.267Z,52.73
2018-07-12T11:32:59.025Z,52.63
2018-07-12T11:33:59.019Z,52.82
2018-07-12T11:34:59.040Z,53.59
2018-07-12T11:35:59.283Z,52.53
2018-07-12T11:36:59.338Z,52.36
2018-07-12T11:37:59.045Z,52.08
2018-07-12T11:38:59.306Z,52.87
2018-07-12T11:39:59.043Z,51.42
2018-07-12T11:40:59.048Z,50.07
2018-07-12T11:41:59.054Z,50.19
2018-07-12T11:42:59.314Z,50.19
2018-07-12T11:43:59.063Z,49.99
2018-07-12T11:44:59.332Z,50.87
2018-07-12T11:45:59.340Z,51.9
2018-07-12T11:46:59.340Z,51.4
2018-07-12T11:47:59.109Z,52.08
2018-07-12T11:48:59.092Z,52.92
2018-07-12T11:49:59.346Z,53.5
2018-07-12T11:50:59.517Z,53.77
2018-07-12T11:51:59.354Z,53.69
2018-07-12T11:52:59.470Z,53.59
2018-07-12T11:53:59.372Z,53.67
2018-07-12T11:54:59.374Z,53.47
2018-07-12T11:55:59.114Z,52.7
2018-07-12T11:56:59.377Z,52.7
2018-07-12T11:57:59.128Z,52.92
2018-07-12T11:58:59.404Z,52.82
2018-07-12T11:59:59.153Z,52.05
2018-07-12T12:00:59.413Z,52.08
2018-07-12T12:01:59.669Z,51.98
2018-07-12T12:02:59.405Z,52.27
2018-07-12T12:03:59.404Z,52.17
2018-07-12T12:04:59.163Z,51.88
2018-07-12T12:05:59.181Z,51.13
2018-07-12T12:06:59.586Z,49.41
2018-07-12T12:07:59.423Z,49.51
2018-07-12T12:08:59.432Z,48.47
2018-07-12T12:09:59.428Z,50.02
2018-07-12T12:10:59.456Z,49.05
2018-07-12T12:11:59.205Z,48.85
2018-07-12T12:12:59.639Z,48.3
2018-07-12T12:13:59.201Z,46.38
2018-07-12T12:14:59.207Z,45.8
2018-07-12T12:15:59.216Z,45.53
2018-07-12T12:16:59.218Z,44.85
2018-07-12T12:17:59.230Z,44.68
2018-07-12T12:18:59.235Z,44.6
2018-07-12T12:19:59.243Z,43.05
2018-07-12T12:20:59.491Z,43.15
2018-07-12T12:21:59.501Z,43.63
2018-07-12T12:22:59.517Z,44.02
2018-07-12T12:23:59.254Z,44.41
2018-07-12T12:24:59.517Z,44.58
2018-07-12T12:25:59.269Z,45.62
2018-07-12T12:26:59.524Z,45.99
2018-07-12T12:27:59.531Z,46.77
2018-07-12T12:28:59.545Z,47.23
2018-07-12T12:29:59.314Z,47.42
2018-07-12T12:30:59.554Z,47.72
2018-07-12T12:31:59.557Z,49.46
2018-07-12T12:32:59.318Z,47.13
2018-07-12T12:33:59.322Z,46.65
2018-07-12T12:34:59.570Z,47.03
2018-07-12T12:35:59.574Z,46.45
2018-07-12T12:36:59.333Z,47.3
2018-07-12T12:37:59.334Z,47.3
2018-07-12T12:38:59.605Z,46.92
2018-07-12T12:40:01.258Z,46.99
2018-07-12T12:40:59.354Z,47.96
2018-07-12T12:41:59.400Z,49.22
2018-07-12T12:42:59.364Z,48.9
2018-07-12T12:43:59.379Z,49.29
2018-07-12T12:44:59.625Z,49.77
2018-07-12T12:45:59.639Z,49.97
2018-07-12T12:46:59.636Z,50.74
2018-07-12T12:47:59.641Z,50.84
2018-07-12T12:48:59.391Z,50.35
2018-07-12T12:49:59.399Z,49.97
2018-07-12T12:50:59.838Z,49.9
2018-07-12T12:51:59.657Z,50.07
2018-07-12T12:52:59.666Z,50.55
2018-07-12T12:53:59.663Z,51.04
2018-07-12T12:54:59.678Z,50.67
2018-07-12T12:55:59.435Z,50.29
2018-07-12T12:56:59.436Z,50.38
2018-07-12T12:57:59.694Z,50.41
2018-07-12T12:58:59.440Z,49.54
2018-07-12T13:00:00.560Z,49.54
2018-07-12T13:00:59.707Z,49.54
2018-07-12T13:01:59.711Z,48.57
2018-07-12T13:02:59.752Z,48.49
2018-07-12T13:03:59.470Z,48.2
2018-07-12T13:04:59.472Z,47.62
2018-07-12T13:05:59.730Z,47.23
2018-07-12T13:06:59.536Z,46.84
2018-07-12T13:07:59.819Z,47.03
2018-07-12T13:08:59.744Z,46.94
2018-07-12T13:09:59.535Z,46.07
2018-07-12T13:10:59.751Z,45.68
2018-07-12T13:11:59.860Z,45.61
2018-07-12T13:12:59.762Z,45.78
2018-07-12T13:13:59.770Z,47.33
2018-07-12T13:14:59.775Z,47.03
2018-07-12T13:15:59.622Z,47.13
2018-07-12T13:16:59.525Z,46.36
2018-07-12T13:17:59.537Z,47.03
2018-07-12T13:18:59.795Z,47.2
2018-07-12T13:19:59.541Z,47.3
2018-07-12T13:20:59.798Z,48.47
2018-07-12T13:21:59.561Z,47.5
2018-07-12T13:22:59.567Z,45.58
2018-07-12T13:23:59.815Z,45.58
2018-07-12T13:24:59.836Z,45.56
2018-07-12T13:25:59.905Z,45.73
2018-07-12T13:26:59.840Z,46.6
2018-07-12T13:27:59.936Z,47.28
2018-07-12T13:28:59.859Z,47.67
2018-07-12T13:29:59.848Z,47.96
2018-07-12T13:30:59.596Z,48.32
2018-07-12T13:32:00.049Z,48.64
2018-07-12T13:32:59.872Z,48.54
2018-07-12T13:33:59.862Z,48.15
2018-07-12T13:34:59.875Z,48.25